Aérodrome :
LOGIN :

S'inscrire | Disclaimer

   EN    FR    IT 

 










Légende :    VFR   VFR Marginal   IFR   IFR Intensif   IFR Très Intensif
Visi : 
Plafond : 
>= 8 km
>= 3000ft
5 à 8 km
1000 à 3000 ft
1500m à 5 km
500 à 1000 ft
800 à 1500m
200 à 500 ft
< 800m
< 200 ft
Symboles :   Orages  Brouillard  Fortes neiges  Fortes précipitations  Vent > 20 kt
SIGMETs :   Divers  Orages  Givrage  Turbulence  Onde Orograph.  Cendres Volcan.






- Altitude de l'aérodrome : 46 ft
- Code IATA : PAF


LPMT - Montijo Air Base

DERNIER METAR :
  • 141600Z 32011G21KT 9999 VCSH SCT030 FEW034CB SCT046 15/09 Q1011

METARs EXPIRÉS :
  • 141400Z 32015G30KT 310V020 9999 SCT030 FEW036CB 13/08 Q1012

TAF TAF LPMT
Valide du 14 à 12h jusqu'au 15 à 12h UTC


141115Z 1412/1512 33015KT 9999 SCT020 FEW025TCU
TEMPO 1412/1512 34015G28KT 7000 -SHRA BKN020 FEW020CB
PROB30
TEMPO 1412/1503 4000 SHRAGS BKN014 SCT018CB
PROB30
TEMPO 1412/1418 34020G35KT



MET'MAP, la Météo Aéronautique d'un coup d'oeil ! - Copyright ORBIFLY Décembre 2007 - Disclaimer

ORBIFLY MET'MAP TEAM :

Programmation & Développement : Alexandra Zaïnal
Conception & Développement : Baudouin d'Aumeries
Co-Programmation & Développement : Marc-Olivier Méhu
Soutien technique & logistique : Manuel Goepfert

Contact : metmap@orbifly.com




SOURCES & CREDITS :

   NOAA